Latest Weather Observations for Mount Crawford

IDS60901

Issued at 6:01 pm CDT Monday 5 December 2022 (issued every 10 minutes, with the page automatically refreshed every 10 minutes)

About weather observations | Map of Adelaide area stations | Latest observations for Adelaide area | Other Formats
Station Details ID: 023878 Name: MOUNT CRAWFORD AWS Lat: -34.73 Lon: 138.93 Height: 525.0 m
Data from the previous 72 hours. | See also: Recent months at Mount Crawford
Date/Time
CDT
Temp
°C
App
Temp
°C
Dew
Point
°C
Rel
Hum
%
Delta-T
°C
Wind Press
QNH
hPa
Press
MSL
hPa
Rain since
9am
mm
Dir  Spd
km/h
Gust
km/h
Spd
kts
Gust
kts
05/06:00pm 15.5 11.0 7.0 57 4.3 SE 20 35 11 19 1014.3 1012.5 0.0
05/05:30pm 15.9 10.2 6.9 55 4.6 SSE 26 37 14 20 1014.4 1012.6 0.0
05/05:00pm 16.3 10.9 6.4 52 5.0 SSE 24 35 13 19 1014.7 1012.9 0.0
05/04:30pm 17.1 11.6 7.5 53 5.0 SSE 26 39 14 21 1014.8 1013.0 0.0
05/04:00pm 17.3 12.9 7.6 53 5.0 SE 20 35 11 19 1015.1 1013.2 0.0
05/03:30pm 17.2 12.2 8.1 55 4.8 S 24 33 13 18 1015.4 1013.5 0.0
05/03:00pm 17.3 12.5 9.0 58 4.4 S 24 33 13 18 1015.8 1014.0 0.0
05/02:30pm 17.1 13.0 8.8 58 4.4 SE 20 32 11 17 1015.9 1014.1 0.0
05/02:00pm 17.7 13.4 9.3 58 4.5 SSE 22 35 12 19 1015.8 1014.0 0.0
05/01:30pm 16.9 11.2 8.3 57 4.5 SSE 28 41 15 22 1015.6 1013.8 0.0
05/01:03pm 16.8 11.1 8.5 58 4.4 SSE 28 46 15 25 1015.5 1013.7 0.0
05/01:00pm 16.4 10.0 8.4 59 4.2 SSE 32 46 17 25 1015.4 1013.5 0.0
05/12:51pm 16.4 10.6 7.9 57 4.4 SSE 28 46 15 25 1015.5 1013.7 0.0
05/12:30pm 15.5 9.9 8.7 64 3.6 SSE 28 37 15 20 1015.6 1013.8 0.0
05/12:00pm 14.3 8.9 8.0 66 3.2 SSE 26 43 14 23 1015.8 1014.0 0.0
05/11:30am 15.4 10.7 9.1 66 3.3 SSE 24 35 13 19 1016.0 1014.2 0.0
05/11:00am 14.7 10.1 8.0 64 3.4 SSE 22 32 12 17 1015.8 1014.0 0.0
05/10:30am 14.1 8.6 7.6 65 3.3 SSE 26 37 14 20 1015.6 1013.8 0.0
05/10:00am 14.2 8.6 8.6 69 2.9 SSE 28 37 15 20 1015.3 1013.4 0.0
05/09:30am 14.6 8.8 8.1 65 3.3 SSE 28 39 15 21 1015.2 1013.3 0.0
05/09:00am 13.3 9.2 8.8 74 2.3 SSE 20 33 11 18 1015.3 1013.4 0.0
05/08:46am 14.5 9.2 9.7 73 2.5 SE 28 46 15 25 1015.2 1013.3 0.0
05/08:30am 12.7 6.5 9.2 79 1.8 SSE 32 44 17 24 1014.6 1012.8 0.0
05/08:03am 12.2 6.6 8.9 80 1.7 SSE 28 46 15 25 1014.5 1012.7 0.0
05/08:00am 12.1 6.5 8.8 80 1.7 SSE 28 43 15 23 1014.5 1012.7 0.0
05/07:30am 11.7 6.9 8.7 82 1.5 SE 24 39 13 21 1014.2 1012.4 0.0
05/07:00am 11.2 6.4 8.8 85 1.2 SE 24 39 13 21 1014.0 1012.2 0.0
05/06:30am 11.3 6.8 8.7 84 1.3 SSE 22 39 12 21 1013.8 1012.0 0.0
05/06:00am 11.2 6.8 8.8 85 1.2 SSE 22 32 12 17 1014.0 1012.2 0.0
05/05:30am 11.3 7.3 9.2 87 1.1 S 20 32 11 17 1013.9 1012.1 0.0
05/05:00am 11.5 7.5 9.1 85 1.2 S 20 32 11 17 1013.6 1011.7 0.0
05/04:30am 11.4 7.0 9.0 85 1.2 S 22 32 12 17 1013.2 1011.3 0.0
05/04:00am 11.5 6.4 9.1 85 1.2 S 26 43 14 23 1013.1 1011.2 0.0
05/03:30am 11.6 6.2 9.5 87 1.1 S 28 39 15 21 1013.1 1011.2 0.0
05/03:00am 11.7 6.8 9.9 89 0.9 SSW 26 35 14 19 1013.1 1011.2 0.0
05/02:30am 11.8 7.3 10.0 89 0.9 SSW 24 39 13 21 1013.4 1011.5 0.0
05/02:00am 11.8 7.0 10.2 90 0.8 S 26 35 14 19 1012.6 1010.8 0.0
05/01:30am 12.0 8.6 10.4 90 0.8 SSW 19 26 10 14 1013.1 1011.2 0.0
05/01:00am 12.1 9.1 10.5 90 0.9 SW 17 22 9 12 1014.0 1012.2 0.0
05/12:30am 12.3 9.4 10.9 91 0.8 SSW 17 24 9 13 1014.0 1012.2 0.0
05/12:00am 12.6 8.0 11.0 90 0.9 S 26 33 14 18 1013.5 1011.6 0.0
 
Date/Time
CDT
Temp
°C
App
Temp
°C
Dew
Point
°C
Rel
Hum
%
Delta-T
°C
Wind Press
QNH
hPa
Press
MSL
hPa
Rain since
9am
mm
Dir  Spd
km/h
Gust
km/h
Spd
kts
Gust
kts
04/11:57pm 12.7 8.5 11.1 90 0.9 S 24 33 13 18 1013.4 1011.5 0.0
04/11:30pm 13.2 12.2 11.1 87 1.1 SSW 7 11 4 6 1014.2 1012.4 0.0
04/11:00pm 13.8 10.4 10.6 81 1.7 SSW 19 24 10 13 1014.2 1012.4 0.0
04/10:30pm 14.3 11.0 11.6 84 1.5 S 20 26 11 14 1014.1 1012.3 0.0
04/10:00pm 15.2 12.7 13.4 89 1.0 SSW 19 28 10 15 1014.2 1012.4 0.0
04/09:30pm 16.0 14.8 14.0 88 1.2 S 13 17 7 9 1013.4 1011.5 0.0
04/09:00pm 17.0 14.6 13.9 82 1.8 S 19 26 10 14 1012.9 1011.1 0.0
04/08:30pm 19.1 16.7 12.8 67 3.6 WSW 17 28 9 15 1012.5 1010.7 0.0
04/08:00pm 20.2 17.9 11.7 58 4.8 W 15 22 8 12 1011.8 1009.9 0.0
04/07:30pm 23.3 19.5 9.7 42 7.6 W 20 33 11 18 1011.5 1009.6 0.0
04/07:00pm 26.2 20.6 3.5 23 11.5 W 22 35 12 19 1010.9 1009.1 0.0
04/06:30pm 27.3 23.2 7.7 29 10.8 WSW 19 33 10 18 1010.8 1009.0 0.0
04/06:00pm 27.9 23.6 7.2 27 11.3 WSW 19 30 10 16 1010.7 1008.9 0.0
04/05:30pm 28.6 24.0 6.7 25 11.9 WSW 20 35 11 19 1010.6 1008.8 0.0
04/05:00pm 28.3 24.0 5.2 23 12.2 WSW 17 24 9 13 1010.6 1008.8 0.0
04/04:30pm 31.4 27.1 7.1 22 13.5 W 19 28 10 15 1010.7 1008.9 0.0
04/04:00pm 31.2 25.6 5.6 20 13.9 W 24 39 13 21 1011.1 1009.2 0.0
04/03:30pm 31.5 26.9 5.8 20 14.0 W 19 30 10 16 1011.2 1009.3 0.0
04/03:00pm 29.9 23.7 4.5 20 13.4 W 26 41 14 22 1011.4 1009.5 0.0
04/02:30pm 30.7 24.7 5.2 20 13.7 W 26 41 14 22 1011.6 1009.7 0.0
04/02:09pm 30.6 23.4 2.8 17 14.3 W 30 48 16 26 1011.7 1009.8 0.0
04/02:00pm 31.0 23.1 2.3 16 14.7 W 33 48 18 26 1011.8 1009.9 0.0
04/01:30pm 31.2 23.7 3.3 17 14.6 W 32 52 17 28 1012.0 1010.1 0.0
04/01:04pm 31.0 23.8 3.1 17 14.5 W 30 48 16 26 1012.2 1010.4 0.0
04/01:00pm 31.3 23.9 4.2 18 14.4 W 32 48 17 26 1012.3 1010.5 0.0
04/12:30pm 30.5 22.5 1.9 16 14.5 W 33 48 18 26 1012.6 1010.8 0.0
04/12:00pm 29.8 23.0 2.9 18 13.8 W 28 46 15 25 1012.9 1011.1 0.0
04/11:30am 30.4 26.2 8.2 25 12.5 WNW 20 33 11 18 1013.4 1011.5 0.0
04/11:00am 28.7 22.9 6.1 24 12.2 WNW 26 37 14 20 1013.5 1011.6 0.0
04/10:30am 27.4 23.3 8.8 31 10.4 NW 20 30 11 16 1013.5 1011.6 0.0
04/10:00am 27.0 23.0 8.9 32 10.1 NW 20 28 11 15 1013.6 1011.7 0.0
04/09:30am 25.8 21.0 7.4 31 10.0 NW 22 32 12 17 1013.7 1011.8 0.0
04/09:00am 25.4 20.8 6.6 30 10.0 NW 20 32 11 17 1013.8 1012.0 0.0
04/08:30am 25.3 20.0 5.0 27 10.5 NW 22 32 12 17 1013.7 1011.8 0.0
04/08:00am 25.3 19.9 4.4 26 10.7 NNW 22 32 12 17 1013.4 1011.5 0.0
04/07:30am 25.0 19.7 3.0 24 11.0 N 20 26 11 14 1012.8 1011.0 0.0
04/07:00am 23.6 19.5 2.4 25 10.4 N 13 17 7 9 1012.8 1011.0 0.0
04/06:30am 21.8 17.5 3.0 29 9.2 NE 15 19 8 10 1012.7 1010.9 0.0
04/06:00am 20.7 15.8 2.0 29 8.9 NE 17 20 9 11 1012.4 1010.6 0.0
04/05:30am 20.6 15.3 2.0 29 8.8 ENE 19 22 10 12 1012.3 1010.5 0.0
04/05:00am 20.3 15.4 1.7 29 8.8 ENE 17 20 9 11 1012.2 1010.4 0.0
04/04:30am 19.9 14.9 1.4 29 8.6 ENE 17 22 9 12 1012.1 1010.3 0.0
04/04:00am 20.0 14.3 -0.6 25 9.3 E 19 28 10 15 1012.2 1010.4 0.0
04/03:30am 22.1 15.4 -4.1 17 11.2 ENE 22 28 12 15 1012.3 1010.5 0.0
04/03:00am 22.0 14.8 -4.9 16 11.3 ENE 24 30 13 16 1012.5 1010.7 0.0
04/02:30am 20.7 14.8 -1.1 23 9.8 E 20 24 11 13 1012.7 1010.9 0.0
04/02:00am 20.8 14.9 -1.1 23 9.8 E 20 24 11 13 1013.1 1011.2 0.0
04/01:30am 20.6 15.0 -0.1 25 9.4 E 19 22 10 12 1013.2 1011.3 0.0
04/01:00am 20.2 14.7 0.6 27 9.0 E 19 20 10 11 1013.6 1011.7 0.0
04/12:30am 19.9 14.5 1.4 29 8.6 ESE 19 20 10 11 1014.0 1012.2 0.0
04/12:00am 19.7 14.9 2.6 32 8.2 E 17 19 9 10 1014.3 1012.5 0.0
 
Date/Time
CDT
Temp
°C
App
Temp
°C
Dew
Point
°C
Rel
Hum
%
Delta-T
°C
Wind Press
QNH
hPa
Press
MSL
hPa
Rain since
9am
mm
Dir  Spd
km/h
Gust
km/h
Spd
kts
Gust
kts
03/11:30pm 19.3 14.6 3.1 34 7.8 ESE 17 20 9 11 1014.5 1012.7 0.0
03/11:00pm 20.1 14.8 2.9 32 8.3 SE 20 26 11 14 1014.5 1012.7 0.0
03/10:30pm 21.1 15.8 2.9 30 8.8 SE 20 26 11 14 1014.5 1012.7 0.0
03/10:00pm 20.6 16.0 5.4 37 7.7 ESE 19 24 10 13 1014.3 1012.5 0.0
03/09:30pm 22.9 17.2 2.9 27 9.8 SSE 22 28 12 15 1014.1 1012.3 0.0
03/09:00pm 22.8 17.7 3.9 29 9.5 SSE 20 24 11 13 1014.0 1012.2 0.0
03/08:30pm 22.9 18.1 5.8 33 8.9 SSE 20 28 11 15 1013.9 1012.1 0.0
03/08:00pm 23.8 19.5 7.0 34 8.9 SE 19 28 10 15 1013.7 1011.8 0.0
03/07:30pm 26.7 22.9 1.9 20 12.3 SW 11 13 6 7 1013.7 1011.8 0.0
03/07:00pm 27.8 24.2 2.8 20 12.7 WSW 11 17 6 9 1013.5 1011.6 0.0
03/06:30pm 28.8 26.0 2.9 19 13.2 SSE 7 11 4 6 1013.5 1011.6 0.0
03/06:00pm 29.0 25.9 3.8 20 13.1 S 9 15 5 8 1013.3 1011.4 0.0
03/05:30pm 28.8 24.8 0.5 16 13.9 SW 11 19 6 10 1013.3 1011.4 0.0
03/05:00pm 29.0 24.5 -0.2 15 14.1 WNW 13 20 7 11 1013.5 1011.6 0.0
03/04:30pm 29.6 25.2 2.8 18 13.7 WSW 15 30 8 16 1013.6 1011.7 0.0
03/04:00pm 28.9 24.2 0.6 16 13.9 WSW 15 24 8 13 1013.6 1011.7 0.0
03/03:30pm 28.8 24.2 3.6 20 13.0 WSW 17 26 9 14 1013.6 1011.7 0.0
03/03:00pm 28.8 25.6 5.0 22 12.6 W 11 26 6 14 1014.0 1012.2 0.0
03/02:30pm 27.9 22.7 2.2 19 12.9 W 19 26 10 14 1014.2 1012.4 0.0
03/02:00pm 28.0 24.8 3.0 20 12.7 WSW 9 19 5 10 1014.4 1012.6 0.0
03/01:30pm 28.1 24.4 4.4 22 12.4 WNW 13 20 7 11 1014.6 1012.8 0.0
03/01:00pm 27.7 24.4 4.7 23 12.0 NW 11 19 6 10 1014.8 1013.0 0.0
03/12:30pm 27.0 23.1 3.5 22 12.0 W 13 22 7 12 1015.1 1013.2 0.0
03/12:00pm 27.4 24.8 6.2 26 11.4 W 9 20 5 11 1015.5 1013.7 0.0
03/11:30am 26.7 22.9 5.6 26 11.1 N 15 24 8 13 1015.7 1013.9 0.0
03/11:00am 25.5 21.7 4.0 25 11.0 NW 13 22 7 12 1015.8 1014.0 0.0
03/10:30am 25.2 20.8 4.9 27 10.5 NW 17 24 9 13 1015.7 1013.9 0.0
03/10:00am 25.2 20.4 4.9 27 10.5 N 19 24 10 13 1015.7 1013.9 0.0
03/09:30am 24.8 22.0 7.0 32 9.5 NNE 11 15 6 8 1015.7 1013.9 0.0
03/09:00am 23.5 21.0 8.0 37 8.4 NE 11 15 6 8 1015.7 1013.9 0.0
03/08:30am 22.2 19.7 8.0 40 7.6 ENE 11 17 6 9 1015.6 1013.8 0.0
03/08:00am 20.9 17.5 5.7 37 7.8 ENE 13 17 7 9 1015.4 1013.5 0.0
03/07:30am 20.0 16.5 5.3 38 7.4 E 13 19 7 10 1014.9 1013.1 0.0
03/07:00am 18.7 15.0 6.2 44 6.4 ESE 15 17 8 9 1014.7 1012.9 0.0
03/06:30am 17.3 13.6 6.5 49 5.5 ESE 15 19 8 10 1014.5 1012.7 0.0
03/06:00am 16.4 12.4 6.5 52 5.0 ESE 17 19 9 10 1014.3 1012.5 0.0
03/05:30am 16.3 11.9 6.4 52 5.0 ESE 19 20 10 11 1014.2 1012.4 0.0
03/05:00am 16.0 11.6 6.4 53 4.8 E 19 22 10 12 1014.0 1012.2 0.0
03/04:30am 15.8 11.5 7.1 56 4.4 E 19 22 10 12 1014.0 1012.2 0.0
03/04:00am 15.7 11.3 7.2 57 4.3 ESE 20 22 11 12 1014.0 1012.2 0.0
03/03:30am 16.2 11.8 7.4 56 4.5 ESE 20 24 11 13 1014.1 1012.3 0.0
03/03:00am 16.1 11.5 6.3 52 4.9 ESE 20 24 11 13 1014.3 1012.5 0.0
03/02:30am 16.0 10.9 4.1 45 5.7 ESE 20 24 11 13 1014.5 1012.7 0.0
03/02:00am 16.1 11.3 5.4 49 5.3 ESE 20 24 11 13 1014.7 1012.9 0.0
03/01:30am 16.4 10.9 5.7 49 5.3 ESE 24 30 13 16 1014.8 1013.0 0.0
03/01:00am 16.4 11.2 5.7 49 5.3 ESE 22 26 12 14 1015.1 1013.2 0.0
03/12:30am 16.5 11.0 4.2 44 5.9 SE 22 28 12 15 1015.4 1013.5 0.0
03/12:00am 16.6 11.0 3.7 42 6.1 SE 22 28 12 15 1015.7 1013.9 0.0
 
Date/Time
CDT
Temp
°C
App
Temp
°C
Dew
Point
°C
Rel
Hum
%
Delta-T
°C
Wind Press
QNH
hPa
Press
MSL
hPa
Rain since
9am
mm
Dir  Spd
km/h
Gust
km/h
Spd
kts
Gust
kts
02/11:30pm 16.9 11.5 4.3 43 6.1 SE 22 30 12 16 1015.8 1014.0 0.0
02/11:00pm 16.9 11.2 4.9 45 5.9 SE 24 28 13 15 1015.8 1014.0 0.0
02/10:30pm 16.8 11.3 5.7 48 5.5 SE 24 28 13 15 1015.7 1013.9 0.0
02/10:00pm 17.4 11.7 6.9 50 5.4 SSE 26 30 14 16 1015.7 1013.9 0.0
02/09:30pm 17.1 12.2 8.3 56 4.6 SE 24 32 13 17 1015.4 1013.5 0.0
02/09:00pm 17.6 13.1 8.5 55 4.8 SSE 22 26 12 14 1015.2 1013.3 0.0
02/08:30pm 18.0 13.9 7.7 51 5.4 SE 19 24 10 13 1015.1 1013.2 0.0
02/08:00pm 19.5 15.2 6.9 44 6.5 SE 19 24 10 13 1014.8 1013.0 0.0
02/07:30pm 21.8 17.9 6.9 38 7.8 SE 17 28 9 15 1014.7 1012.9 0.0
02/07:00pm 23.6 20.2 4.0 28 9.9 ESE 11 15 6 8 1014.4 1012.6 0.0
02/06:30pm 24.3 21.0 4.6 28 10.1 ESE 11 15 6 8 1014.2 1012.4 0.0

Latest Capital City Observations: Canberra | Sydney | Melbourne | Brisbane | Adelaide | Perth | Hobart | Darwin

Other formats

Comma delimited format used in spreadsheet applications
http://www.bom.gov.au/fwo/IDS60901/IDS60901.94678.axf

JavaScript Object Notation format (JSON) in row-major order
http://www.bom.gov.au/fwo/IDS60901/IDS60901.94678.json

Data quality

Most of these data are generated automatically and are frequently updated. Quality checks on data are not normally performed. It is possible for incorrect values to appear. Refer to information at About Latest Weather Observations and please check the disclaimer before using these data.